sensor_id;sensor_type;location;lat;lon;timestamp;temperature;humidity
65876;HTU21D;52657;51.128;5.938;2023-03-01T00:02:01;2.96;57.69
65876;HTU21D;52657;51.128;5.938;2023-03-01T00:04:27;2.91;57.90
65876;HTU21D;52657;51.128;5.938;2023-03-01T00:06:53;2.89;58.00
65876;HTU21D;52657;51.128;5.938;2023-03-01T00:09:19;2.86;58.11
65876;HTU21D;52657;51.128;5.938;2023-03-01T00:11:45;2.81;58.28
65876;HTU21D;52657;51.128;5.938;2023-03-01T00:14:12;2.73;58.62
65876;HTU21D;52657;51.128;5.938;2023-03-01T00:16:40;2.74;58.69
65876;HTU21D;52657;51.128;5.938;2023-03-01T00:19:09;2.75;58.87
65876;HTU21D;52657;51.128;5.938;2023-03-01T00:21:36;2.68;58.88
65876;HTU21D;52657;51.128;5.938;2023-03-01T00:24:02;2.70;58.99
65876;HTU21D;52657;51.128;5.938;2023-03-01T00:26:28;2.64;59.27
65876;HTU21D;52657;51.128;5.938;2023-03-01T00:28:56;2.64;59.28
65876;HTU21D;52657;51.128;5.938;2023-03-01T00:31:23;2.65;59.21
65876;HTU21D;52657;51.128;5.938;2023-03-01T00:33:53;2.64;59.24
65876;HTU21D;52657;51.128;5.938;2023-03-01T00:36:27;2.69;59.15
65876;HTU21D;52657;51.128;5.938;2023-03-01T00:38:53;2.66;59.31
65876;HTU21D;52657;51.128;5.938;2023-03-01T00:41:20;2.65;59.34
65876;HTU21D;52657;51.128;5.938;2023-03-01T00:43:49;2.66;59.35
65876;HTU21D;52657;51.128;5.938;2023-03-01T00:46:19;2.69;59.25
65876;HTU21D;52657;51.128;5.938;2023-03-01T00:48:45;2.64;59.31
65876;HTU21D;52657;51.128;5.938;2023-03-01T00:51:14;2.62;59.41
65876;HTU21D;52657;51.128;5.938;2023-03-01T00:53:40;2.64;59.34
65876;HTU21D;52657;51.128;5.938;2023-03-01T00:56:08;2.64;59.32
65876;HTU21D;52657;51.128;5.938;2023-03-01T00:58:35;2.64;59.41
65876;HTU21D;52657;51.128;5.938;2023-03-01T01:01:01;2.62;59.32
65876;HTU21D;52657;51.128;5.938;2023-03-01T01:03:32;2.61;59.38
65876;HTU21D;52657;51.128;5.938;2023-03-01T01:05:57;2.58;59.43
65876;HTU21D;52657;51.128;5.938;2023-03-01T01:08:23;2.56;59.43
65876;HTU21D;52657;51.128;5.938;2023-03-01T01:10:49;2.52;59.54
65876;HTU21D;52657;51.128;5.938;2023-03-01T01:13:14;2.49;59.65
65876;HTU21D;52657;51.128;5.938;2023-03-01T01:15:40;2.46;59.71
65876;HTU21D;52657;51.128;5.938;2023-03-01T01:18:06;2.44;59.80
65876;HTU21D;52657;51.128;5.938;2023-03-01T01:20:32;2.42;59.84
65876;HTU21D;52657;51.128;5.938;2023-03-01T01:22:58;2.39;60.04
65876;HTU21D;52657;51.128;5.938;2023-03-01T01:25:24;2.39;60.03
65876;HTU21D;52657;51.128;5.938;2023-03-01T01:27:52;2.40;60.06
65876;HTU21D;52657;51.128;5.938;2023-03-01T01:30:18;2.39;60.00
65876;HTU21D;52657;51.128;5.938;2023-03-01T01:32:44;2.35;60.07
65876;HTU21D;52657;51.128;5.938;2023-03-01T01:35:09;2.31;60.25
65876;HTU21D;52657;51.128;5.938;2023-03-01T01:37:35;2.31;60.22
65876;HTU21D;52657;51.128;5.938;2023-03-01T01:40:03;2.27;60.38
65876;HTU21D;52657;51.128;5.938;2023-03-01T01:42:31;2.26;60.38
65876;HTU21D;52657;51.128;5.938;2023-03-01T01:45:29;2.27;60.44
65876;HTU21D;52657;51.128;5.938;2023-03-01T01:48:06;2.25;60.51
65876;HTU21D;52657;51.128;5.938;2023-03-01T01:50:39;2.29;60.41
65876;HTU21D;52657;51.128;5.938;2023-03-01T01:53:11;2.27;60.28
65876;HTU21D;52657;51.128;5.938;2023-03-01T01:55:43;2.25;60.40
65876;HTU21D;52657;51.128;5.938;2023-03-01T01:58:15;2.24;60.47
65876;HTU21D;52657;51.128;5.938;2023-03-01T02:00:43;2.26;60.40
65876;HTU21D;52657;51.128;5.938;2023-03-01T02:03:33;2.28;60.35
65876;HTU21D;52657;51.128;5.938;2023-03-01T02:08:46;2.27;60.38
65876;HTU21D;52657;51.128;5.938;2023-03-01T02:11:15;2.22;60.43
65876;HTU21D;52657;51.128;5.938;2023-03-01T02:13:50;2.16;60.58
65876;HTU21D;52657;51.128;5.938;2023-03-01T02:16:16;2.09;60.79
65876;HTU21D;52657;51.128;5.938;2023-03-01T02:18:44;2.06;61.08
65876;HTU21D;52657;51.128;5.938;2023-03-01T02:21:30;2.00;61.18
65876;HTU21D;52657;51.128;5.938;2023-03-01T02:26:54;1.92;61.46
65876;HTU21D;52657;51.128;5.938;2023-03-01T02:29:24;1.90;61.60
65876;HTU21D;52657;51.128;5.938;2023-03-01T02:31:53;1.84;61.75
65876;HTU21D;52657;51.128;5.938;2023-03-01T02:34:24;1.86;61.76
65876;HTU21D;52657;51.128;5.938;2023-03-01T02:36:58;1.81;61.90
65876;HTU21D;52657;51.128;5.938;2023-03-01T02:39:29;1.79;62.01
65876;HTU21D;52657;51.128;5.938;2023-03-01T02:41:56;1.77;62.02
65876;HTU21D;52657;51.128;5.938;2023-03-01T02:44:23;1.75;62.12
65876;HTU21D;52657;51.128;5.938;2023-03-01T02:46:52;1.71;62.26
65876;HTU21D;52657;51.128;5.938;2023-03-01T02:49:25;1.72;62.24
65876;HTU21D;52657;51.128;5.938;2023-03-01T02:57:28;1.64;62.57
65876;HTU21D;52657;51.128;5.938;2023-03-01T02:59:59;1.64;62.57
65876;HTU21D;52657;51.128;5.938;2023-03-01T03:02:29;1.68;62.44
65876;HTU21D;52657;51.128;5.938;2023-03-01T03:05:07;1.63;62.59
65876;HTU21D;52657;51.128;5.938;2023-03-01T03:07:38;1.66;62.50
65876;HTU21D;52657;51.128;5.938;2023-03-01T03:10:07;1.65;62.50
65876;HTU21D;52657;51.128;5.938;2023-03-01T03:12:33;1.61;62.60
65876;HTU21D;52657;51.128;5.938;2023-03-01T03:15:00;1.58;62.70
65876;HTU21D;52657;51.128;5.938;2023-03-01T03:17:26;1.60;62.71
65876;HTU21D;52657;51.128;5.938;2023-03-01T03:19:52;1.60;62.71
65876;HTU21D;52657;51.128;5.938;2023-03-01T03:22:17;1.61;62.66
65876;HTU21D;52657;51.128;5.938;2023-03-01T03:24:43;1.56;62.73
65876;HTU21D;52657;51.128;5.938;2023-03-01T03:27:09;1.51;62.87
65876;HTU21D;52657;51.128;5.938;2023-03-01T03:29:34;1.51;62.96
65876;HTU21D;52657;51.128;5.938;2023-03-01T03:32:00;1.54;62.86
65876;HTU21D;52657;51.128;5.938;2023-03-01T03:34:26;1.51;62.81
65876;HTU21D;52657;51.128;5.938;2023-03-01T03:36:55;1.50;62.86
65876;HTU21D;52657;51.128;5.938;2023-03-01T03:39:27;1.47;62.90
65876;HTU21D;52657;51.128;5.938;2023-03-01T03:41:54;1.42;63.02
65876;HTU21D;52657;51.128;5.938;2023-03-01T03:44:21;1.37;63.23
65876;HTU21D;52657;51.128;5.938;2023-03-01T03:46:50;1.28;63.60
65876;HTU21D;52657;51.128;5.938;2023-03-01T03:49:15;1.26;63.66
65876;HTU21D;52657;51.128;5.938;2023-03-01T03:51:41;1.24;63.76
65876;HTU21D;52657;51.128;5.938;2023-03-01T03:54:07;1.23;63.85
65876;HTU21D;52657;51.128;5.938;2023-03-01T03:56:33;1.23;63.82
65876;HTU21D;52657;51.128;5.938;2023-03-01T03:58:58;1.21;63.83
65876;HTU21D;52657;51.128;5.938;2023-03-01T04:01:24;1.20;63.87
65876;HTU21D;52657;51.128;5.938;2023-03-01T04:03:50;1.22;63.92
65876;HTU21D;52657;51.128;5.938;2023-03-01T04:06:19;1.13;64.15
65876;HTU21D;52657;51.128;5.938;2023-03-01T04:08:47;1.10;64.22
65876;HTU21D;52657;51.128;5.938;2023-03-01T04:11:16;1.09;64.30
65876;HTU21D;52657;51.128;5.938;2023-03-01T04:13:53;1.09;64.38
65876;HTU21D;52657;51.128;5.938;2023-03-01T04:16:19;1.05;64.42
65876;HTU21D;52657;51.128;5.938;2023-03-01T04:18:45;1.07;64.37
65876;HTU21D;52657;51.128;5.938;2023-03-01T04:21:11;1.04;64.56
65876;HTU21D;52657;51.128;5.938;2023-03-01T04:23:38;1.03;64.50
65876;HTU21D;52657;51.128;5.938;2023-03-01T04:26:03;1.05;64.61
65876;HTU21D;52657;51.128;5.938;2023-03-01T04:28:39;1.02;64.55
65876;HTU21D;52657;51.128;5.938;2023-03-01T04:31:09;1.01;64.54
65876;HTU21D;52657;51.128;5.938;2023-03-01T04:33:44;1.02;64.44
65876;HTU21D;52657;51.128;5.938;2023-03-01T04:36:12;1.02;64.47
65876;HTU21D;52657;51.128;5.938;2023-03-01T04:38:38;0.97;64.63
65876;HTU21D;52657;51.128;5.938;2023-03-01T04:41:06;0.94;64.70
65876;HTU21D;52657;51.128;5.938;2023-03-01T04:43:33;0.90;64.79
65876;HTU21D;52657;51.128;5.938;2023-03-01T04:46:08;0.84;65.07
65876;HTU21D;52657;51.128;5.938;2023-03-01T04:48:36;0.86;65.09
65876;HTU21D;52657;51.128;5.938;2023-03-01T04:51:03;0.86;65.03
65876;HTU21D;52657;51.128;5.938;2023-03-01T04:53:29;0.81;65.17
65876;HTU21D;52657;51.128;5.938;2023-03-01T04:55:56;0.82;65.20
65876;HTU21D;52657;51.128;5.938;2023-03-01T04:58:24;0.80;65.30
65876;HTU21D;52657;51.128;5.938;2023-03-01T05:00:51;0.77;65.38
65876;HTU21D;52657;51.128;5.938;2023-03-01T05:03:17;0.78;65.37
65876;HTU21D;52657;51.128;5.938;2023-03-01T05:05:45;0.75;65.58
65876;HTU21D;52657;51.128;5.938;2023-03-01T05:08:13;0.78;65.49
65876;HTU21D;52657;51.128;5.938;2023-03-01T05:10:45;0.77;65.47
65876;HTU21D;52657;51.128;5.938;2023-03-01T05:13:15;0.77;65.52
65876;HTU21D;52657;51.128;5.938;2023-03-01T05:15:54;0.80;65.46
65876;HTU21D;52657;51.128;5.938;2023-03-01T05:18:20;0.84;65.26
65876;HTU21D;52657;51.128;5.938;2023-03-01T05:20:46;0.80;65.23
65876;HTU21D;52657;51.128;5.938;2023-03-01T05:23:13;0.78;65.43
65876;HTU21D;52657;51.128;5.938;2023-03-01T05:25:39;0.76;65.43
65876;HTU21D;52657;51.128;5.938;2023-03-01T05:28:09;0.73;65.58
65876;HTU21D;52657;51.128;5.938;2023-03-01T05:30:36;0.69;65.80
65876;HTU21D;52657;51.128;5.938;2023-03-01T05:33:04;0.68;65.81
65876;HTU21D;52657;51.128;5.938;2023-03-01T05:35:32;0.67;65.75
65876;HTU21D;52657;51.128;5.938;2023-03-01T05:37:58;0.71;65.62
65876;HTU21D;52657;51.128;5.938;2023-03-01T05:40:25;0.72;65.55
65876;HTU21D;52657;51.128;5.938;2023-03-01T05:42:55;0.69;65.53
65876;HTU21D;52657;51.128;5.938;2023-03-01T05:45:24;0.71;65.55
65876;HTU21D;52657;51.128;5.938;2023-03-01T05:47:50;0.67;65.59
65876;HTU21D;52657;51.128;5.938;2023-03-01T05:50:22;0.67;65.56
65876;HTU21D;52657;51.128;5.938;2023-03-01T05:53:03;0.65;65.66
65876;HTU21D;52657;51.128;5.938;2023-03-01T05:55:32;0.67;65.47
65876;HTU21D;52657;51.128;5.938;2023-03-01T05:58:00;0.63;65.55
65876;HTU21D;52657;51.128;5.938;2023-03-01T06:00:27;0.59;65.65
65876;HTU21D;52657;51.128;5.938;2023-03-01T06:02:54;0.54;65.79
65876;HTU21D;52657;51.128;5.938;2023-03-01T06:05:22;0.54;65.82
65876;HTU21D;52657;51.128;5.938;2023-03-01T06:07:48;0.55;65.85
65876;HTU21D;52657;51.128;5.938;2023-03-01T06:10:16;0.55;65.92
65876;HTU21D;52657;51.128;5.938;2023-03-01T06:12:43;0.58;65.82
65876;HTU21D;52657;51.128;5.938;2023-03-01T06:15:11;0.61;65.69
65876;HTU21D;52657;51.128;5.938;2023-03-01T06:17:38;0.62;65.59
65876;HTU21D;52657;51.128;5.938;2023-03-01T06:20:10;0.61;65.62
65876;HTU21D;52657;51.128;5.938;2023-03-01T06:22:36;0.60;65.57
65876;HTU21D;52657;51.128;5.938;2023-03-01T06:25:02;0.57;65.75
65876;HTU21D;52657;51.128;5.938;2023-03-01T06:27:28;0.57;65.72
65876;HTU21D;52657;51.128;5.938;2023-03-01T06:29:54;0.57;65.77
65876;HTU21D;52657;51.128;5.938;2023-03-01T06:32:20;0.57;65.75
65876;HTU21D;52657;51.128;5.938;2023-03-01T06:34:46;0.54;65.75
65876;HTU21D;52657;51.128;5.938;2023-03-01T06:37:11;0.51;65.90
65876;HTU21D;52657;51.128;5.938;2023-03-01T06:39:37;0.51;65.95
65876;HTU21D;52657;51.128;5.938;2023-03-01T06:42:03;0.51;65.92
65876;HTU21D;52657;51.128;5.938;2023-03-01T06:44:29;0.49;66.10
65876;HTU21D;52657;51.128;5.938;2023-03-01T06:46:55;0.51;66.14
65876;HTU21D;52657;51.128;5.938;2023-03-01T06:49:21;0.57;66.06
65876;HTU21D;52657;51.128;5.938;2023-03-01T06:51:50;0.60;65.90
65876;HTU21D;52657;51.128;5.938;2023-03-01T06:54:16;0.63;65.82
65876;HTU21D;52657;51.128;5.938;2023-03-01T06:56:46;0.64;65.82
65876;HTU21D;52657;51.128;5.938;2023-03-01T06:59:11;0.63;65.90
65876;HTU21D;52657;51.128;5.938;2023-03-01T07:01:37;0.63;66.02
65876;HTU21D;52657;51.128;5.938;2023-03-01T07:04:04;0.65;65.99
65876;HTU21D;52657;51.128;5.938;2023-03-01T07:06:30;0.67;65.94
65876;HTU21D;52657;51.128;5.938;2023-03-01T07:08:56;0.66;66.01
65876;HTU21D;52657;51.128;5.938;2023-03-01T07:11:22;0.67;66.01
65876;HTU21D;52657;51.128;5.938;2023-03-01T07:13:48;0.67;66.11
65876;HTU21D;52657;51.128;5.938;2023-03-01T07:16:14;0.73;66.04
65876;HTU21D;52657;51.128;5.938;2023-03-01T07:18:40;0.77;66.05
65876;HTU21D;52657;51.128;5.938;2023-03-01T07:21:08;0.83;65.90
65876;HTU21D;52657;51.128;5.938;2023-03-01T07:23:34;0.87;65.82
65876;HTU21D;52657;51.128;5.938;2023-03-01T07:26:00;0.89;65.84
65876;HTU21D;52657;51.128;5.938;2023-03-01T07:28:26;0.96;65.69
65876;HTU21D;52657;51.128;5.938;2023-03-01T07:30:52;1.02;65.53
65876;HTU21D;52657;51.128;5.938;2023-03-01T07:33:18;1.05;65.46
65876;HTU21D;52657;51.128;5.938;2023-03-01T07:35:43;1.07;65.46
65876;HTU21D;52657;51.128;5.938;2023-03-01T07:38:09;1.09;65.52
65876;HTU21D;52657;51.128;5.938;2023-03-01T07:40:35;1.13;65.51
65876;HTU21D;52657;51.128;5.938;2023-03-01T07:43:01;1.17;65.60
65876;HTU21D;52657;51.128;5.938;2023-03-01T07:45:28;1.26;65.57
65876;HTU21D;52657;51.128;5.938;2023-03-01T07:47:55;1.35;65.35
65876;HTU21D;52657;51.128;5.938;2023-03-01T07:50:22;1.63;66.15
65876;HTU21D;52657;51.128;5.938;2023-03-01T07:52:50;2.49;66.41
65876;HTU21D;52657;51.128;5.938;2023-03-01T07:55:16;3.49;64.59
65876;HTU21D;52657;51.128;5.938;2023-03-01T07:57:42;4.49;60.85
65876;HTU21D;52657;51.128;5.938;2023-03-01T08:00:11;5.34;57.78
65876;HTU21D;52657;51.128;5.938;2023-03-01T08:02:40;6.00;54.65
65876;HTU21D;52657;51.128;5.938;2023-03-01T08:05:08;6.58;52.78
65876;HTU21D;52657;51.128;5.938;2023-03-01T08:07:35;7.12;51.21
65876;HTU21D;52657;51.128;5.938;2023-03-01T08:10:01;7.57;49.64
65876;HTU21D;52657;51.128;5.938;2023-03-01T08:12:26;8.03;48.66
65876;HTU21D;52657;51.128;5.938;2023-03-01T08:14:53;8.48;47.08
65876;HTU21D;52657;51.128;5.938;2023-03-01T08:17:19;8.92;45.92
65876;HTU21D;52657;51.128;5.938;2023-03-01T08:19:45;9.23;43.74
65876;HTU21D;52657;51.128;5.938;2023-03-01T08:22:11;9.31;43.89
65876;HTU21D;52657;51.128;5.938;2023-03-01T08:24:37;9.39;43.31
65876;HTU21D;52657;51.128;5.938;2023-03-01T08:27:03;9.69;42.48
65876;HTU21D;52657;51.128;5.938;2023-03-01T08:29:33;9.80;42.11
65876;HTU21D;52657;51.128;5.938;2023-03-01T08:31:59;10.09;41.96
65876;HTU21D;52657;51.128;5.938;2023-03-01T08:34:25;10.36;40.99
65876;HTU21D;52657;51.128;5.938;2023-03-01T08:36:51;10.73;40.30
65876;HTU21D;52657;51.128;5.938;2023-03-01T08:39:20;11.14;39.33
65876;HTU21D;52657;51.128;5.938;2023-03-01T08:41:46;11.24;38.54
65876;HTU21D;52657;51.128;5.938;2023-03-01T08:44:14;11.29;38.18
65876;HTU21D;52657;51.128;5.938;2023-03-01T08:46:43;11.34;37.66
65876;HTU21D;52657;51.128;5.938;2023-03-01T08:49:15;11.34;37.24
65876;HTU21D;52657;51.128;5.938;2023-03-01T08:51:42;11.33;37.14
65876;HTU21D;52657;51.128;5.938;2023-03-01T08:54:14;11.32;37.24
65876;HTU21D;52657;51.128;5.938;2023-03-01T08:56:40;11.57;37.45
65876;HTU21D;52657;51.128;5.938;2023-03-01T08:59:06;11.83;36.66
65876;HTU21D;52657;51.128;5.938;2023-03-01T09:01:32;11.96;35.77
65876;HTU21D;52657;51.128;5.938;2023-03-01T09:03:59;11.86;35.61
65876;HTU21D;52657;51.128;5.938;2023-03-01T09:06:31;11.67;36.20
65876;HTU21D;52657;51.128;5.938;2023-03-01T09:08:59;11.84;36.47
65876;HTU21D;52657;51.128;5.938;2023-03-01T09:11:25;12.03;36.06
65876;HTU21D;52657;51.128;5.938;2023-03-01T09:13:51;12.15;35.48
65876;HTU21D;52657;51.128;5.938;2023-03-01T09:16:19;12.26;35.26
65876;HTU21D;52657;51.128;5.938;2023-03-01T09:18:49;12.44;33.60
65876;HTU21D;52657;51.128;5.938;2023-03-01T09:21:17;12.28;34.01
65876;HTU21D;52657;51.128;5.938;2023-03-01T09:23:45;12.34;34.24
65876;HTU21D;52657;51.128;5.938;2023-03-01T09:26:14;12.59;34.02
65876;HTU21D;52657;51.128;5.938;2023-03-01T09:28:42;12.87;32.85
65876;HTU21D;52657;51.128;5.938;2023-03-01T09:31:08;12.80;33.18
65876;HTU21D;52657;51.128;5.938;2023-03-01T09:33:34;12.74;33.31
65876;HTU21D;52657;51.128;5.938;2023-03-01T09:36:03;12.71;33.34
65876;HTU21D;52657;51.128;5.938;2023-03-01T09:38:30;12.70;33.08
65876;HTU21D;52657;51.128;5.938;2023-03-01T09:40:56;12.58;32.89
65876;HTU21D;52657;51.128;5.938;2023-03-01T09:46:10;12.51;32.96
65876;HTU21D;52657;51.128;5.938;2023-03-01T09:48:44;12.66;32.25
65876;HTU21D;52657;51.128;5.938;2023-03-01T09:51:19;12.46;32.28
65876;HTU21D;52657;51.128;5.938;2023-03-01T09:53:48;12.29;33.39
65876;HTU21D;52657;51.128;5.938;2023-03-01T10:02:04;12.52;33.22
65876;HTU21D;52657;51.128;5.938;2023-03-01T10:10:23;13.06;32.68
65876;HTU21D;52657;51.128;5.938;2023-03-01T10:12:53;13.27;32.25
65876;HTU21D;52657;51.128;5.938;2023-03-01T10:15:30;13.34;31.84
65876;HTU21D;52657;51.128;5.938;2023-03-01T10:18:04;13.48;31.46
65876;HTU21D;52657;51.128;5.938;2023-03-01T10:20:46;13.53;31.14
65876;HTU21D;52657;51.128;5.938;2023-03-01T10:23:15;13.51;30.66
65876;HTU21D;52657;51.128;5.938;2023-03-01T10:26:09;13.30;30.77
65876;HTU21D;52657;51.128;5.938;2023-03-01T10:28:59;13.36;30.59
65876;HTU21D;52657;51.128;5.938;2023-03-01T10:31:45;13.31;31.11
65876;HTU21D;52657;51.128;5.938;2023-03-01T10:34:29;13.21;30.98
65876;HTU21D;52657;51.128;5.938;2023-03-01T10:37:17;13.05;31.11
65876;HTU21D;52657;51.128;5.938;2023-03-01T10:40:05;12.69;31.06
65876;HTU21D;52657;51.128;5.938;2023-03-01T10:42:46;12.08;31.43
65876;HTU21D;52657;51.128;5.938;2023-03-01T10:45:37;11.41;32.41
65876;HTU21D;52657;51.128;5.938;2023-03-01T10:50:34;10.23;34.76
65876;HTU21D;52657;51.128;5.938;2023-03-01T10:53:02;9.94;35.51
65876;HTU21D;52657;51.128;5.938;2023-03-01T10:55:35;9.71;36.44
65876;HTU21D;52657;51.128;5.938;2023-03-01T10:58:21;9.54;36.63
65876;HTU21D;52657;51.128;5.938;2023-03-01T11:00:52;9.37;37.17
65876;HTU21D;52657;51.128;5.938;2023-03-01T11:03:35;9.27;37.76
65876;HTU21D;52657;51.128;5.938;2023-03-01T11:08:42;9.12;38.18
65876;HTU21D;52657;51.128;5.938;2023-03-01T11:11:31;9.09;38.20
65876;HTU21D;52657;51.128;5.938;2023-03-01T11:14:17;9.03;38.48
65876;HTU21D;52657;51.128;5.938;2023-03-01T11:16:49;9.05;38.60
65876;HTU21D;52657;51.128;5.938;2023-03-01T11:19:23;8.91;38.43
65876;HTU21D;52657;51.128;5.938;2023-03-01T11:24:40;8.58;39.27
65876;HTU21D;52657;51.128;5.938;2023-03-01T11:27:21;8.48;39.33
65876;HTU21D;52657;51.128;5.938;2023-03-01T11:29:57;8.38;39.96
65876;HTU21D;52657;51.128;5.938;2023-03-01T11:32:31;8.47;39.72
65876;HTU21D;52657;51.128;5.938;2023-03-01T11:38:12;8.45;39.51
65876;HTU21D;52657;51.128;5.938;2023-03-01T11:48:55;8.67;39.26
65876;HTU21D;52657;51.128;5.938;2023-03-01T11:51:57;8.59;39.67
65876;HTU21D;52657;51.128;5.938;2023-03-01T12:05:15;8.59;40.04
65876;HTU21D;52657;51.128;5.938;2023-03-01T12:11:10;8.79;39.27
65876;HTU21D;52657;51.128;5.938;2023-03-01T12:22:21;8.71;38.37
65876;HTU21D;52657;51.128;5.938;2023-03-01T12:25:08;8.70;39.27
65876;HTU21D;52657;51.128;5.938;2023-03-01T12:28:21;8.74;39.55
65876;HTU21D;52657;51.128;5.938;2023-03-01T12:47:42;8.75;39.20
65876;HTU21D;52657;51.128;5.938;2023-03-01T12:50:23;8.82;39.02
65876;HTU21D;52657;51.128;5.938;2023-03-01T12:52:53;8.91;37.59
65876;HTU21D;52657;51.128;5.938;2023-03-01T12:55:37;8.86;37.14
65876;HTU21D;52657;51.128;5.938;2023-03-01T12:58:24;8.92;37.65
65876;HTU21D;52657;51.128;5.938;2023-03-01T13:01:22;8.98;37.43
65876;HTU21D;52657;51.128;5.938;2023-03-01T13:06:32;9.14;37.27
65876;HTU21D;52657;51.128;5.938;2023-03-01T13:09:27;9.06;37.11
65876;HTU21D;52657;51.128;5.938;2023-03-01T13:11:56;9.03;37.21
65876;HTU21D;52657;51.128;5.938;2023-03-01T13:16:52;9.15;37.94
65876;HTU21D;52657;51.128;5.938;2023-03-01T13:19:21;9.14;37.72
65876;HTU21D;52657;51.128;5.938;2023-03-01T13:21:53;9.17;37.44
65876;HTU21D;52657;51.128;5.938;2023-03-01T13:24:37;9.17;37.14
65876;HTU21D;52657;51.128;5.938;2023-03-01T13:32:31;9.27;37.55
65876;HTU21D;52657;51.128;5.938;2023-03-01T13:37:33;9.33;36.40
65876;HTU21D;52657;51.128;5.938;2023-03-01T13:40:03;9.19;37.24
65876;HTU21D;52657;51.128;5.938;2023-03-01T13:42:39;9.25;37.25
65876;HTU21D;52657;51.128;5.938;2023-03-01T13:47:47;9.34;36.59
65876;HTU21D;52657;51.128;5.938;2023-03-01T13:50:25;9.36;36.03
65876;HTU21D;52657;51.128;5.938;2023-03-01T13:53:00;9.39;35.86
65876;HTU21D;52657;51.128;5.938;2023-03-01T13:55:42;9.48;35.47
65876;HTU21D;52657;51.128;5.938;2023-03-01T13:58:24;9.31;35.75
65876;HTU21D;52657;51.128;5.938;2023-03-01T14:01:04;9.22;36.14
65876;HTU21D;52657;51.128;5.938;2023-03-01T14:03:33;9.29;36.01
65876;HTU21D;52657;51.128;5.938;2023-03-01T14:06:26;9.22;36.76
65876;HTU21D;52657;51.128;5.938;2023-03-01T14:09:21;9.29;37.14
65876;HTU21D;52657;51.128;5.938;2023-03-01T14:17:52;9.35;36.41
65876;HTU21D;52657;51.128;5.938;2023-03-01T14:20:23;9.38;36.34
65876;HTU21D;52657;51.128;5.938;2023-03-01T14:22:54;9.38;36.47
65876;HTU21D;52657;51.128;5.938;2023-03-01T14:31:04;9.41;36.91
65876;HTU21D;52657;51.128;5.938;2023-03-01T14:33:56;9.45;36.85
65876;HTU21D;52657;51.128;5.938;2023-03-01T14:36:31;9.41;36.78
65876;HTU21D;52657;51.128;5.938;2023-03-01T14:38:57;9.45;36.74
65876;HTU21D;52657;51.128;5.938;2023-03-01T14:41:33;9.46;36.85
65876;HTU21D;52657;51.128;5.938;2023-03-01T14:44:07;9.49;37.45
65876;HTU21D;52657;51.128;5.938;2023-03-01T14:46:43;9.59;36.79
65876;HTU21D;52657;51.128;5.938;2023-03-01T14:49:17;9.65;36.22
65876;HTU21D;52657;51.128;5.938;2023-03-01T14:52:03;9.45;36.28
65876;HTU21D;52657;51.128;5.938;2023-03-01T14:54:44;9.39;36.60
65876;HTU21D;52657;51.128;5.938;2023-03-01T14:57:17;9.35;36.76
65876;HTU21D;52657;51.128;5.938;2023-03-01T14:59:44;9.36;37.08
65876;HTU21D;52657;51.128;5.938;2023-03-01T15:02:17;9.42;37.24
65876;HTU21D;52657;51.128;5.938;2023-03-01T15:05:00;9.42;37.31
65876;HTU21D;52657;51.128;5.938;2023-03-01T15:07:31;9.48;37.16
65876;HTU21D;52657;51.128;5.938;2023-03-01T15:10:03;9.51;37.11
65876;HTU21D;52657;51.128;5.938;2023-03-01T15:12:41;9.53;37.05
65876;HTU21D;52657;51.128;5.938;2023-03-01T15:18:05;9.37;36.85
65876;HTU21D;52657;51.128;5.938;2023-03-01T15:20:33;9.32;37.17
65876;HTU21D;52657;51.128;5.938;2023-03-01T15:23:03;9.38;37.34
65876;HTU21D;52657;51.128;5.938;2023-03-01T15:25:31;9.37;37.76
65876;HTU21D;52657;51.128;5.938;2023-03-01T15:28:02;9.48;38.00
65876;HTU21D;52657;51.128;5.938;2023-03-01T15:30:34;9.50;37.77
65876;HTU21D;52657;51.128;5.938;2023-03-01T15:33:33;9.47;37.69
65876;HTU21D;52657;51.128;5.938;2023-03-01T15:36:03;9.42;38.23
65876;HTU21D;52657;51.128;5.938;2023-03-01T15:38:57;9.45;38.08
65876;HTU21D;52657;51.128;5.938;2023-03-01T15:41:30;9.39;38.22
65876;HTU21D;52657;51.128;5.938;2023-03-01T15:44:01;9.38;38.06
65876;HTU21D;52657;51.128;5.938;2023-03-01T15:46:39;9.37;38.01
65876;HTU21D;52657;51.128;5.938;2023-03-01T15:49:36;9.27;38.27
65876;HTU21D;52657;51.128;5.938;2023-03-01T15:52:03;9.27;38.43
65876;HTU21D;52657;51.128;5.938;2023-03-01T15:54:29;9.32;38.49
65876;HTU21D;52657;51.128;5.938;2023-03-01T15:56:55;9.31;38.49
65876;HTU21D;52657;51.128;5.938;2023-03-01T15:59:22;9.27;38.49
65876;HTU21D;52657;51.128;5.938;2023-03-01T16:01:48;9.30;38.78
65876;HTU21D;52657;51.128;5.938;2023-03-01T16:04:17;9.35;38.30
65876;HTU21D;52657;51.128;5.938;2023-03-01T16:06:51;9.22;38.78
65876;HTU21D;52657;51.128;5.938;2023-03-01T16:09:26;9.20;38.77
65876;HTU21D;52657;51.128;5.938;2023-03-01T16:11:53;9.21;38.69
65876;HTU21D;52657;51.128;5.938;2023-03-01T16:14:19;9.19;38.61
65876;HTU21D;52657;51.128;5.938;2023-03-01T16:16:48;9.15;38.69
65876;HTU21D;52657;51.128;5.938;2023-03-01T16:19:14;9.11;38.75
65876;HTU21D;52657;51.128;5.938;2023-03-01T16:21:41;9.17;38.85
65876;HTU21D;52657;51.128;5.938;2023-03-01T16:24:08;9.16;38.78
65876;HTU21D;52657;51.128;5.938;2023-03-01T16:26:36;9.16;38.80
65876;HTU21D;52657;51.128;5.938;2023-03-01T16:29:02;9.14;39.06
65876;HTU21D;52657;51.128;5.938;2023-03-01T16:31:28;9.15;39.20
65876;HTU21D;52657;51.128;5.938;2023-03-01T16:33:56;9.18;39.24
65876;HTU21D;52657;51.128;5.938;2023-03-01T16:36:24;9.19;39.12
65876;HTU21D;52657;51.128;5.938;2023-03-01T16:38:51;9.14;39.27
65876;HTU21D;52657;51.128;5.938;2023-03-01T16:41:19;9.07;39.05
65876;HTU21D;52657;51.128;5.938;2023-03-01T16:43:45;9.00;38.71
65876;HTU21D;52657;51.128;5.938;2023-03-01T16:46:17;8.96;38.76
65876;HTU21D;52657;51.128;5.938;2023-03-01T16:48:45;8.90;38.83
65876;HTU21D;52657;51.128;5.938;2023-03-01T16:51:11;8.88;38.88
65876;HTU21D;52657;51.128;5.938;2023-03-01T16:53:38;8.83;39.06
65876;HTU21D;52657;51.128;5.938;2023-03-01T16:56:06;8.77;39.26
65876;HTU21D;52657;51.128;5.938;2023-03-01T16:58:34;8.73;39.72
65876;HTU21D;52657;51.128;5.938;2023-03-01T17:01:12;8.73;39.92
65876;HTU21D;52657;51.128;5.938;2023-03-01T17:03:39;8.65;40.05
65876;HTU21D;52657;51.128;5.938;2023-03-01T17:06:08;8.57;40.12
65876;HTU21D;52657;51.128;5.938;2023-03-01T17:08:34;8.59;40.90
65876;HTU21D;52657;51.128;5.938;2023-03-01T17:11:12;8.60;40.81
65876;HTU21D;52657;51.128;5.938;2023-03-01T17:13:39;8.56;40.61
65876;HTU21D;52657;51.128;5.938;2023-03-01T17:16:08;8.53;40.35
65876;HTU21D;52657;51.128;5.938;2023-03-01T17:18:35;8.46;40.35
65876;HTU21D;52657;51.128;5.938;2023-03-01T17:21:01;8.44;40.34
65876;HTU21D;52657;51.128;5.938;2023-03-01T17:23:28;8.41;40.16
65876;HTU21D;52657;51.128;5.938;2023-03-01T17:25:54;8.33;40.20
65876;HTU21D;52657;51.128;5.938;2023-03-01T17:28:25;8.28;40.39
65876;HTU21D;52657;51.128;5.938;2023-03-01T17:30:52;8.22;40.42
65876;HTU21D;52657;51.128;5.938;2023-03-01T17:33:18;8.20;40.57
65876;HTU21D;52657;51.128;5.938;2023-03-01T17:35:45;8.15;40.61
65876;HTU21D;52657;51.128;5.938;2023-03-01T17:38:13;8.13;40.68
65876;HTU21D;52657;51.128;5.938;2023-03-01T17:40:41;8.08;40.62
65876;HTU21D;52657;51.128;5.938;2023-03-01T17:43:08;8.03;40.79
65876;HTU21D;52657;51.128;5.938;2023-03-01T17:45:37;8.04;40.79